Decoded Metar for KAUM (AUSTIN MUNI in MN, USA) (IATA:AUM) | Meteo·Mobile Aviation Weather
aviador You're here:

KAUM Decoded Metar

AUSTIN MUNI in MN, USA
Report Time2018-09-22 10:55:00
UTC Time2018-09-22 11:14:46
Flight Rules vfr VFR
WindCalm
Visibility9999 m
Phenomena:N/A
Clouds:N/A
Expected CloudBase > 400 ft AGL from Temp-Dew spread
CeilingNone
Temp04°C (ISA -9)
Dew Point03°C (93% RH)
AAT2.5°C
QNH1027 hPa
Density Alt-171 ft
Elevation1,230 ft
Report Wrong Elevation
Raw Report
KAUM 221055Z AUTO 00000KT 10SM CLR 04/03 A3034 RMK AO2=

Extra information for KAUM:More info

Metar Taf Metar & Taf Last 4 Metars F.Rules Stats Wind Profile Meteogram Temp Stats Airport Information Weather charts Add Link Nearby VenuesMetar ALERT Operation Metar Decoded Social comments

AIRNAV info for KAUM